Time;durP1;ratioP1;P1;durP2;ratioP2;P2;SDS_P1;SDS_P2;PMS_P1;PMS_P2;Temp;Humidity;BMP_temperature;BMP_pressure;BME280_temperature;BME280_humidity;BME280_pressure;Samples;Min_cycle;Max_cycle;Signal;HPM_P1;HPM_P2
2023/04/13 00:02:16;;;;;;;3.67;2.27;;;7.20;71.00;;;;;;5048375;28;20192;-69
2023/04/13 00:04:41;;;;;;;3.27;1.80;;;7.20;70.70;;;;;;5057399;28;20232;-69
2023/04/13 00:07:13;;;;;;;2.27;1.93;;;7.10;71.00;;;;;;5052311;28;20215;-69
2023/04/13 00:09:40;;;;;;;2.03;1.73;;;7.00;71.30;;;;;;5052652;28;20182;-69
2023/04/13 00:12:05;;;;;;;2.33;1.57;;;6.90;71.70;;;;;;5051069;28;20207;-69
2023/04/13 00:14:34;;;;;;;3.30;1.37;;;6.80;72.40;;;;;;5053278;28;20239;-69
2023/04/13 00:17:01;;;;;;;1.30;1.30;;;6.70;72.50;;;;;;5049932;28;20603;-69
2023/04/13 00:19:27;;;;;;;5.30;1.33;;;6.60;72.70;;;;;;5052070;28;20184;-69
2023/04/13 00:21:53;;;;;;;1.90;1.57;;;6.50;72.70;;;;;;5053142;28;20196;-69
2023/04/13 00:24:19;;;;;;;1.50;1.40;;;6.40;72.60;;;;;;5055533;28;20187;-69
2023/04/13 00:26:45;;;;;;;2.20;1.70;;;6.40;72.80;;;;;;5053432;28;20264;-69
2023/04/13 00:29:11;;;;;;;1.20;1.10;;;6.30;72.80;;;;;;5053130;28;20234;-69
2023/04/13 00:31:38;;;;;;;1.53;1.53;;;6.30;73.20;;;;;;5046393;28;20608;-70
2023/04/13 00:34:04;;;;;;;1.63;1.53;;;6.20;73.50;;;;;;5053236;28;20219;-70
2023/04/13 00:36:30;;;;;;;1.80;1.37;;;6.10;73.70;;;;;;5051210;28;20190;-70
2023/04/13 00:38:56;;;;;;;2.37;1.30;;;6.00;73.70;;;;;;5051537;28;20176;-70
2023/04/13 00:41:25;;;;;;;2.90;1.27;;;6.00;73.80;;;;;;5051583;28;20235;-70
2023/04/13 00:43:51;;;;;;;0.93;0.93;;;5.90;73.90;;;;;;5054609;28;20217;-70
2023/04/13 00:46:21;;;;;;;1.47;1.10;;;5.80;74.10;;;;;;5049872;28;20183;-69
2023/04/13 00:48:47;;;;;;;1.37;1.20;;;5.80;74.50;;;;;;5051311;28;21000;-69
2023/04/13 00:51:14;;;;;;;1.13;1.10;;;5.70;74.80;;;;;;5059036;28;20186;-71
2023/04/13 00:53:43;;;;;;;1.10;1.00;;;5.70;74.90;;;;;;5055300;28;20183;-69
2023/04/13 00:56:09;;;;;;;1.17;1.07;;;5.60;75.10;;;;;;5047650;28;20285;-70
2023/04/13 00:58:36;;;;;;;3.07;1.00;;;5.60;75.10;;;;;;5049607;28;20191;-70
2023/04/13 01:01:02;;;;;;;1.63;0.73;;;5.50;75.40;;;;;;5051513;28;20258;-70
2023/04/13 01:03:28;;;;;;;0.90;0.90;;;5.40;75.50;;;;;;5052797;28;20683;-69
2023/04/13 01:06:00;;;;;;;0.73;0.73;;;5.40;75.10;;;;;;5047337;28;20211;-69
2023/04/13 01:08:34;;;;;;;0.90;0.90;;;5.40;75.10;;;;;;5050281;28;20614;-70
2023/04/13 01:11:04;;;;;;;3.13;0.90;;;5.40;75.10;;;;;;5054387;28;20692;-70
2023/04/13 01:13:40;;;;;;;1.53;0.77;;;5.30;75.20;;;;;;5048281;28;20207;-69
2023/04/13 01:16:17;;;;;;;0.80;0.80;;;5.30;75.30;;;;;;5050853;28;20295;-71
2023/04/13 01:18:45;;;;;;;0.80;0.80;;;5.30;75.30;;;;;;5054038;28;20542;-71
2023/04/13 01:21:15;;;;;;;4.47;0.70;;;5.20;75.50;;;;;;5054105;28;20194;-69
2023/04/13 01:23:58;;;;;;;0.63;0.63;;;5.20;75.50;;;;;;5050597;28;20176;-71
2023/04/13 01:26:34;;;;;;;0.93;0.63;;;5.10;75.70;;;;;;5052778;28;20678;-69
2023/04/13 01:28:59;;;;;;;1.93;1.03;;;5.10;75.50;;;;;;5050176;28;20182;-70
2023/04/13 01:31:25;;;;;;;0.67;0.67;;;5.10;75.40;;;;;;5052682;28;20694;-71
2023/04/13 01:33:51;;;;;;;0.40;0.40;;;5.10;75.20;;;;;;5046024;28;20176;-70
2023/04/13 01:36:17;;;;;;;0.80;0.80;;;5.10;75.00;;;;;;5052960;28;20549;-70
2023/04/13 01:38:43;;;;;;;1.43;0.60;;;5.10;75.00;;;;;;5046893;28;20180;-70
2023/04/13 01:41:09;;;;;;;0.70;0.70;;;5.10;74.90;;;;;;5048322;28;20182;-70
2023/04/13 01:43:35;;;;;;;0.53;0.50;;;5.10;75.00;;;;;;5049351;28;20207;-71
2023/04/13 01:46:08;;;;;;;1.50;0.70;;;5.10;75.00;;;;;;5054639;28;20237;-70
2023/04/13 01:48:43;;;;;;;0.70;0.70;;;5.10;74.90;;;;;;5050113;28;20590;-70
2023/04/13 01:51:23;;;;;;;0.70;0.70;;;5.10;74.90;;;;;;5047160;28;20186;-70
2023/04/13 01:54:09;;;;;;;0.50;0.50;;;5.10;75.00;;;;;;5046607;28;20187;-71
2023/04/13 01:56:37;;;;;;;1.23;0.70;;;5.00;75.30;;;;;;5047777;28;20186;-69
2023/04/13 01:59:03;;;;;;;0.67;0.60;;;5.00;75.40;;;;;;5042655;28;20183;-69
2023/04/13 02:01:29;;;;;;;0.67;0.60;;;5.00;75.30;;;;;;5050993;28;20181;-69
2023/04/13 02:03:55;;;;;;;0.70;0.70;;;4.90;75.50;;;;;;5048774;28;20195;-69
2023/04/13 02:06:21;;;;;;;0.63;0.63;;;5.00;75.40;;;;;;5049559;28;20188;-69
2023/04/13 02:08:47;;;;;;;0.67;0.67;;;4.80;76.00;;;;;;5044671;28;20183;-69
2023/04/13 02:11:13;;;;;;;0.70;0.63;;;4.90;76.20;;;;;;5054794;28;20183;-70
2023/04/13 02:13:39;;;;;;;0.70;0.70;;;4.90;76.60;;;;;;5053694;28;20207;-70
2023/04/13 02:16:08;;;;;;;1.63;0.60;;;4.90;76.50;;;;;;5054113;28;20203;-70
2023/04/13 02:18:34;;;;;;;0.63;0.57;;;4.80;77.20;;;;;;5052693;28;21496;-70
2023/04/13 02:21:08;;;;;;;0.73;0.73;;;4.80;77.40;;;;;;5055876;28;20816;-70
2023/04/13 02:23:34;;;;;;;1.67;0.60;;;4.80;77.00;;;;;;5055945;28;20707;-70
2023/04/13 02:26:01;;;;;;;0.60;0.60;;;4.80;77.00;;;;;;5055556;28;20774;-70
2023/04/13 02:28:28;;;;;;;0.60;0.60;;;4.80;76.70;;;;;;5052239;28;20180;-69
2023/04/13 02:30:54;;;;;;;0.90;0.90;;;4.80;76.80;;;;;;5053798;28;20888;-71
2023/04/13 02:33:20;;;;;;;0.60;0.60;;;4.80;77.10;;;;;;5058989;28;20192;-70
2023/04/13 02:35:49;;;;;;;0.77;0.77;;;4.80;76.90;;;;;;5052788;28;20281;-70
2023/04/13 02:38:15;;;;;;;0.57;0.57;;;4.80;76.90;;;;;;5056791;28;20244;-70
2023/04/13 02:40:42;;;;;;;1.70;0.60;;;4.90;76.80;;;;;;5057867;28;20175;-70
2023/04/13 02:43:09;;;;;;;0.50;0.50;;;4.90;76.90;;;;;;5054324;28;20202;-69
2023/04/13 02:45:35;;;;;;;2.63;1.10;;;4.80;76.80;;;;;;5059887;28;20226;-70
2023/04/13 02:48:01;;;;;;;2.50;0.77;;;4.80;76.50;;;;;;5051404;28;20190;-70
2023/04/13 02:50:26;;;;;;;1.27;0.60;;;4.80;76.40;;;;;;5051444;28;20168;-71
2023/04/13 02:52:53;;;;;;;1.40;0.80;;;4.80;76.40;;;;;;5055332;28;20706;-70
2023/04/13 02:55:19;;;;;;;0.50;0.50;;;4.80;76.40;;;;;;5055864;28;20219;-70
2023/04/13 02:57:45;;;;;;;0.63;0.63;;;4.70;76.20;;;;;;5051317;28;20183;-70
2023/04/13 03:00:12;;;;;;;0.80;0.80;;;4.60;76.50;;;;;;5056211;28;20184;-70
2023/04/13 03:02:38;;;;;;;0.40;0.40;;;4.60;76.50;;;;;;5049737;28;20605;-70
2023/04/13 03:05:07;;;;;;;0.87;0.57;;;4.40;76.70;;;;;;5053523;28;20183;-70
2023/04/13 03:07:35;;;;;;;0.47;0.47;;;4.50;76.50;;;;;;5051443;28;20183;-70
2023/04/13 03:10:04;;;;;;;0.53;0.53;;;4.60;76.60;;;;;;5058545;28;20885;-70
2023/04/13 03:12:30;;;;;;;0.43;0.43;;;4.60;76.60;;;;;;5054218;28;20183;-70
2023/04/13 03:14:56;;;;;;;0.73;0.70;;;4.60;76.70;;;;;;5059099;28;20249;-69
2023/04/13 03:17:22;;;;;;;1.67;0.67;;;4.60;76.70;;;;;;5047551;28;20176;-69
2023/04/13 03:19:48;;;;;;;0.40;0.40;;;4.70;76.90;;;;;;5058642;28;20194;-69
2023/04/13 03:22:14;;;;;;;0.60;0.60;;;4.70;76.80;;;;;;5055053;28;20197;-70
2023/04/13 03:24:40;;;;;;;0.70;0.40;;;4.70;76.70;;;;;;5055009;28;20822;-69
2023/04/13 03:27:06;;;;;;;0.40;0.40;;;4.70;76.30;;;;;;5052550;28;20190;-70
2023/04/13 03:29:32;;;;;;;0.43;0.43;;;4.70;76.30;;;;;;5051828;28;20207;-70
2023/04/13 03:31:58;;;;;;;0.80;0.77;;;4.60;77.60;;;;;;5052635;28;20178;-70
2023/04/13 03:34:23;;;;;;;0.80;0.70;;;4.60;77.70;;;;;;5052176;28;20277;-70
2023/04/13 03:36:49;;;;;;;0.80;0.80;;;4.60;77.20;;;;;;5052455;28;20184;-70
2023/04/13 03:39:15;;;;;;;0.63;0.63;;;4.60;77.20;;;;;;5054270;28;20195;-69
2023/04/13 03:41:41;;;;;;;1.23;0.80;;;4.60;77.30;;;;;;5051754;28;20248;-69
2023/04/13 03:44:07;;;;;;;0.40;0.40;;;4.50;77.20;;;;;;5056167;28;20601;-70
2023/04/13 03:46:36;;;;;;;0.53;0.53;;;4.50;76.20;;;;;;5055470;28;20183;-70
2023/04/13 03:49:08;;;;;;;1.10;0.80;;;4.40;76.30;;;;;;5053230;28;20784;-69
2023/04/13 03:51:34;;;;;;;0.80;0.57;;;4.30;76.30;;;;;;5058610;28;20600;-69
2023/04/13 03:54:00;;;;;;;0.70;0.70;;;4.30;76.70;;;;;;5049720;28;20207;-69
2023/04/13 03:56:26;;;;;;;0.80;0.80;;;4.30;76.70;;;;;;5054747;28;20179;-69
2023/04/13 03:58:53;;;;;;;0.37;0.37;;;4.30;76.50;;;;;;5056080;28;20298;-71
2023/04/13 04:01:19;;;;;;;1.07;0.90;;;4.40;76.20;;;;;;5056672;28;20180;-69
2023/04/13 04:03:44;;;;;;;0.60;0.60;;;4.40;76.30;;;;;;5060234;28;20210;-69
2023/04/13 04:06:10;;;;;;;0.47;0.47;;;4.40;76.30;;;;;;5056056;28;20190;-70
2023/04/13 04:08:36;;;;;;;0.77;0.50;;;4.40;76.40;;;;;;5057388;28;20171;-69
2023/04/13 04:11:03;;;;;;;0.60;0.60;;;4.40;76.50;;;;;;5056689;28;20198;-71
2023/04/13 04:13:29;;;;;;;0.70;0.70;;;4.50;76.40;;;;;;5056789;28;20179;-70
2023/04/13 04:15:55;;;;;;;2.23;0.80;;;4.50;76.20;;;;;;5056679;28;20207;-70
2023/04/13 04:18:21;;;;;;;1.13;0.80;;;4.60;76.20;;;;;;5056593;28;20175;-71
2023/04/13 04:20:47;;;;;;;0.77;0.73;;;4.50;76.50;;;;;;5051753;28;20180;-71
2023/04/13 04:23:14;;;;;;;0.60;0.60;;;4.50;77.00;;;;;;5054276;28;20569;-70
2023/04/13 04:25:40;;;;;;;0.40;0.40;;;4.50;76.90;;;;;;5050979;28;20176;-71
2023/04/13 04:28:06;;;;;;;1.30;0.70;;;4.50;76.80;;;;;;5052118;28;20175;-71
2023/04/13 04:30:32;;;;;;;1.10;0.67;;;4.60;76.50;;;;;;5054502;28;20625;-69
2023/04/13 04:33:00;;;;;;;1.43;0.80;;;4.60;76.60;;;;;;5053279;28;20179;-69
2023/04/13 04:35:31;;;;;;;2.10;0.50;;;4.60;76.40;;;;;;5051661;28;20218;-72
2023/04/13 04:38:04;;;;;;;0.53;0.53;;;4.50;76.80;;;;;;5048316;28;20241;-74
2023/04/13 04:40:30;;;;;;;0.60;0.60;;;4.50;77.20;;;;;;5048882;28;20183;-73
2023/04/13 04:42:57;;;;;;;3.47;0.90;;;4.50;76.90;;;;;;5057270;28;20183;-75
2023/04/13 04:45:26;;;;;;;2.00;0.57;;;4.60;77.10;;;;;;5055099;28;20193;-71
2023/04/13 04:47:52;;;;;;;4.30;0.97;;;4.60;76.90;;;;;;5049269;28;20183;-73
2023/04/13 04:50:18;;;;;;;0.70;0.67;;;4.70;76.80;;;;;;5053194;28;20237;-73
2023/04/13 04:52:43;;;;;;;0.83;0.60;;;4.70;76.40;;;;;;5053330;28;20184;-73
2023/04/13 04:55:09;;;;;;;0.47;0.47;;;4.70;76.50;;;;;;5051446;28;20203;-73
2023/04/13 04:57:35;;;;;;;0.77;0.77;;;4.80;76.30;;;;;;5046437;28;20238;-75
2023/04/13 05:00:09;;;;;;;1.03;0.60;;;4.80;76.00;;;;;;5047794;28;20278;-75
2023/04/13 05:02:35;;;;;;;1.23;0.77;;;4.90;75.80;;;;;;5046418;28;20175;-72
2023/04/13 05:05:02;;;;;;;0.73;0.57;;;5.00;75.50;;;;;;5038016;28;20207;-73
2023/04/13 05:07:29;;;;;;;0.93;0.90;;;5.10;75.60;;;;;;5065558;28;20175;-76
2023/04/13 05:09:55;;;;;;;0.77;0.77;;;5.20;75.60;;;;;;5050419;28;20184;-73
2023/04/13 05:12:21;;;;;;;1.20;0.70;;;5.20;75.30;;;;;;5052459;28;20180;-74
2023/04/13 05:14:47;;;;;;;0.83;0.83;;;5.30;75.50;;;;;;5054318;28;20206;-73
2023/04/13 05:17:19;;;;;;;0.60;0.60;;;5.40;76.10;;;;;;5048711;28;20172;-69
2023/04/13 05:19:46;;;;;;;0.80;0.80;;;5.40;75.10;;;;;;5053727;28;20657;-71
2023/04/13 05:22:14;;;;;;;1.60;0.57;;;5.50;74.50;;;;;;5046730;28;20267;-71
2023/04/13 05:24:40;;;;;;;0.60;0.60;;;5.50;74.20;;;;;;5049399;28;20248;-71
2023/04/13 05:27:08;;;;;;;0.80;0.80;;;5.60;73.80;;;;;;5051489;28;20209;-74
2023/04/13 05:29:34;;;;;;;2.00;1.07;;;5.70;74.20;;;;;;5052737;28;20167;-73
2023/04/13 05:32:03;;;;;;;0.90;0.90;;;5.80;74.30;;;;;;5050054;28;20183;-73
2023/04/13 05:34:29;;;;;;;5.13;0.77;;;5.80;73.70;;;;;;5048058;28;20688;-73
2023/04/13 05:36:56;;;;;;;1.83;1.00;;;5.90;73.50;;;;;;5045964;28;20190;-74
2023/04/13 05:39:23;;;;;;;2.07;1.33;;;5.90;73.80;;;;;;5049915;28;20218;-76
2023/04/13 05:41:49;;;;;;;1.47;1.20;;;6.00;73.50;;;;;;5053340;28;20676;-73
2023/04/13 05:44:15;;;;;;;3.00;1.33;;;6.10;73.10;;;;;;5058058;28;20874;-71
2023/04/13 05:46:41;;;;;;;1.07;0.57;;;6.20;72.80;;;;;;5053459;28;20175;-72
2023/04/13 05:49:07;;;;;;;1.40;1.27;;;6.20;72.70;;;;;;5059496;28;20194;-72
2023/04/13 05:51:33;;;;;;;1.67;1.37;;;6.30;72.40;;;;;;5057189;28;20312;-71
2023/04/13 05:53:59;;;;;;;1.30;1.13;;;6.10;72.80;;;;;;5051751;28;20271;-71
2023/04/13 05:56:25;;;;;;;1.10;1.07;;;6.20;73.10;;;;;;5055279;28;20336;-71
2023/04/13 05:58:52;;;;;;;1.30;1.00;;;6.20;73.40;;;;;;5057768;28;20171;-71
2023/04/13 06:01:18;;;;;;;1.63;1.53;;;6.30;73.20;;;;;;5059862;28;20171;-71
2023/04/13 06:03:45;;;;;;;1.17;1.17;;;6.40;73.30;;;;;;5054297;28;20238;-71
2023/04/13 06:06:11;;;;;;;2.10;1.70;;;6.50;73.10;;;;;;5055836;28;20206;-71
2023/04/13 06:08:38;;;;;;;1.43;1.33;;;6.60;72.70;;;;;;5055845;28;20250;-71
2023/04/13 06:11:05;;;;;;;2.30;1.23;;;6.70;72.20;;;;;;5053094;28;20184;-70
2023/04/13 06:13:31;;;;;;;1.43;1.37;;;6.80;71.70;;;;;;5051951;28;20192;-70
2023/04/13 06:15:57;;;;;;;2.17;1.13;;;6.90;71.60;;;;;;5055851;28;20222;-71
2023/04/13 06:18:26;;;;;;;1.53;1.37;;;7.00;71.40;;;;;;5056416;28;20644;-71
2023/04/13 06:20:51;;;;;;;1.10;0.90;;;7.10;71.00;;;;;;5056881;28;20221;-70
2023/04/13 06:23:17;;;;;;;0.90;0.90;;;7.10;70.80;;;;;;5055705;28;20184;-70
2023/04/13 06:25:44;;;;;;;1.40;1.30;;;7.20;70.30;;;;;;5056004;28;20316;-70
2023/04/13 06:28:10;;;;;;;7.93;1.63;;;7.20;70.00;;;;;;5053180;28;20190;-70
2023/04/13 06:30:36;;;;;;;0.87;0.87;;;7.30;70.10;;;;;;5058513;28;20233;-71
2023/04/13 06:33:03;;;;;;;1.80;1.17;;;7.40;69.80;;;;;;5056019;28;20252;-71
2023/04/13 06:35:29;;;;;;;1.57;1.40;;;7.50;69.70;;;;;;5056037;28;20218;-71
2023/04/13 06:37:58;;;;;;;4.37;1.13;;;7.50;69.50;;;;;;5054900;28;20207;-69
2023/04/13 06:40:24;;;;;;;3.07;2.00;;;7.60;69.30;;;;;;5036123;28;20255;-68
2023/04/13 06:42:50;;;;;;;1.43;1.33;;;7.60;68.50;;;;;;5055257;28;20231;-71
2023/04/13 06:45:16;;;;;;;2.33;1.00;;;7.70;68.40;;;;;;5053445;28;20696;-71
2023/04/13 06:47:42;;;;;;;1.10;1.10;;;7.80;68.70;;;;;;5056705;28;20182;-70
2023/04/13 06:50:14;;;;;;;4.33;1.43;;;7.80;68.70;;;;;;5055713;28;20184;-71
2023/04/13 06:52:47;;;;;;;1.40;1.30;;;7.90;68.90;;;;;;5052174;28;20193;-71
2023/04/13 06:55:13;;;;;;;1.47;1.47;;;8.00;68.70;;;;;;5054631;28;20297;-69
2023/04/13 06:57:39;;;;;;;1.13;1.13;;;8.10;68.00;;;;;;5050865;28;20566;-72
2023/04/13 07:00:07;;;;;;;1.47;1.37;;;8.20;67.90;;;;;;5055797;28;20987;-72
2023/04/13 07:02:32;;;;;;;3.37;1.33;;;8.20;67.50;;;;;;5052684;28;20188;-70
2023/04/13 07:04:58;;;;;;;1.80;1.70;;;8.40;68.00;;;;;;5051628;28;20795;-71
2023/04/13 07:07:24;;;;;;;2.53;1.63;;;8.50;67.70;;;;;;5057328;28;20563;-71
2023/04/13 07:09:50;;;;;;;1.53;1.40;;;8.60;67.30;;;;;;5052777;28;20183;-71
2023/04/13 07:12:15;;;;;;;5.43;1.50;;;8.60;66.60;;;;;;5048344;28;20706;-70
2023/04/13 07:14:41;;;;;;;1.63;1.53;;;8.70;66.90;;;;;;5057144;28;20300;-71
2023/04/13 07:17:07;;;;;;;2.70;1.67;;;8.80;66.50;;;;;;5056145;28;20561;-71
2023/04/13 07:19:34;;;;;;;2.30;1.60;;;8.80;66.50;;;;;;5051889;28;20262;-72
2023/04/13 07:22:01;;;;;;;2.13;1.87;;;8.90;65.80;;;;;;5052693;28;20899;-70
2023/04/13 07:24:28;;;;;;;1.03;1.03;;;9.00;66.40;;;;;;5057893;28;20167;-72
2023/04/13 07:26:57;;;;;;;5.70;2.13;;;9.00;66.20;;;;;;5056203;28;20618;-70
2023/04/13 07:29:23;;;;;;;3.47;1.97;;;9.10;66.00;;;;;;5056092;28;20171;-69
2023/04/13 07:31:49;;;;;;;1.67;1.63;;;9.20;66.00;;;;;;5054558;28;20207;-70
2023/04/13 07:34:16;;;;;;;4.40;1.63;;;9.30;65.80;;;;;;5051789;28;20215;-71
2023/04/13 07:36:42;;;;;;;1.57;1.47;;;9.40;65.80;;;;;;5060513;28;20171;-70
2023/04/13 07:39:09;;;;;;;1.23;1.23;;;9.50;65.70;;;;;;5055477;28;20577;-70
2023/04/13 07:41:36;;;;;;;1.43;1.30;;;9.60;65.20;;;;;;5055471;28;20183;-69
2023/04/13 07:44:03;;;;;;;2.07;1.87;;;9.70;65.10;;;;;;5051666;28;20193;-70
2023/04/13 07:46:29;;;;;;;1.63;1.53;;;9.80;64.90;;;;;;5051887;28;20264;-69
2023/04/13 07:48:55;;;;;;;2.95;1.92;;;9.80;64.50;;;;;;5055496;28;20208;-69
2023/04/13 07:51:21;;;;;;;7.63;2.27;;;10.00;64.60;;;;;;5055398;28;20171;-69
2023/04/13 07:53:47;;;;;;;1.52;1.42;;;10.10;64.80;;;;;;5056095;28;20175;-69
2023/04/13 07:56:13;;;;;;;3.17;2.20;;;10.10;64.30;;;;;;5052188;28;20190;-69
2023/04/13 07:58:40;;;;;;;1.45;1.45;;;10.30;64.50;;;;;;5056166;28;20555;-69
2023/04/13 08:01:06;;;;;;;1.98;1.63;;;10.40;63.80;;;;;;5057398;28;20190;-70
2023/04/13 08:03:33;;;;;;;2.50;2.30;;;10.50;63.80;;;;;;5051434;28;20179;-69
2023/04/13 08:05:59;;;;;;;2.60;1.73;;;10.60;63.10;;;;;;5056224;28;20631;-69
2023/04/13 08:08:25;;;;;;;6.28;1.58;;;10.70;63.40;;;;;;5054479;28;20193;-70
2023/04/13 08:10:51;;;;;;;2.35;1.70;;;10.90;63.30;;;;;;5052671;28;20175;-70
2023/04/13 08:13:17;;;;;;;2.88;2.25;;;11.00;62.90;;;;;;5051183;28;20180;-71
2023/04/13 08:15:43;;;;;;;3.50;1.98;;;11.10;62.50;;;;;;5056586;28;20578;-70
2023/04/13 08:18:09;;;;;;;2.20;2.00;;;11.30;62.30;;;;;;5050977;28;20190;-69
2023/04/13 08:20:35;;;;;;;3.22;2.45;;;11.40;61.40;;;;;;5056741;28;20187;-70
2023/04/13 08:23:02;;;;;;;1.92;1.83;;;11.50;61.50;;;;;;5057040;28;20179;-69
2023/04/13 08:25:28;;;;;;;1.50;1.50;;;11.70;61.30;;;;;;5053477;28;20219;-71
2023/04/13 08:27:54;;;;;;;1.58;1.58;;;11.80;60.60;;;;;;5051858;28;20190;-69
2023/04/13 08:30:20;;;;;;;2.03;1.75;;;12.00;60.80;;;;;;5056048;28;20184;-70
2023/04/13 08:32:45;;;;;;;4.90;2.05;;;12.10;61.00;;;;;;5056356;28;20205;-70
2023/04/13 08:35:11;;;;;;;2.00;1.75;;;12.30;60.50;;;;;;5051196;28;20696;-68
2023/04/13 08:37:38;;;;;;;2.30;2.15;;;12.50;60.60;;;;;;5053391;28;20683;-69
2023/04/13 08:40:06;;;;;;;2.50;2.17;;;12.70;60.80;;;;;;5051769;28;20575;-69
2023/04/13 08:42:33;;;;;;;3.40;1.73;;;12.90;60.30;;;;;;5049503;28;20172;-71
2023/04/13 08:44:59;;;;;;;3.13;1.90;;;13.10;59.80;;;;;;5052910;28;20615;-70
2023/04/13 08:47:26;;;;;;;2.80;2.30;;;13.30;58.50;;;;;;5049770;28;20180;-71
2023/04/13 08:50:00;;;;;;;3.88;1.60;;;13.50;58.20;;;;;;5052167;28;20223;-71
2023/04/13 08:52:27;;;;;;;2.17;2.00;;;13.70;58.10;;;;;;5047341;28;20274;-71
2023/04/13 08:54:55;;;;;;;1.77;1.67;;;14.00;58.30;;;;;;5049775;28;20655;-70
2023/04/13 08:57:21;;;;;;;2.15;1.95;;;14.40;57.10;;;;;;5046473;28;20653;-71
2023/04/13 08:59:51;;;;;;;2.17;2.00;;;14.80;55.90;;;;;;5053285;28;20635;-71
2023/04/13 09:02:23;;;;;;;2.65;1.88;;;15.10;56.00;;;;;;5053072;28;20202;-71
2023/04/13 09:04:50;;;;;;;1.67;1.58;;;15.80;55.50;;;;;;5055241;28;20198;-71
2023/04/13 09:07:25;;;;;;;1.90;1.80;;;16.50;54.70;;;;;;5051602;28;20221;-71
2023/04/13 09:09:59;;;;;;;2.65;2.00;;;17.40;52.80;;;;;;5054381;28;20186;-70
2023/04/13 09:12:26;;;;;;;2.38;2.17;;;18.30;51.70;;;;;;5051530;28;20183;-69
2023/04/13 09:14:52;;;;;;;2.70;1.98;;;19.30;49.90;;;;;;5054285;28;20249;-71
2023/04/13 09:17:28;;;;;;;2.42;2.22;;;20.20;48.80;;;;;;5047702;28;20183;-70
2023/04/13 09:20:10;;;;;;;2.00;1.85;;;21.10;47.40;;;;;;5050725;28;20183;-70
2023/04/13 09:22:36;;;;;;;4.05;2.10;;;21.80;46.50;;;;;;5055099;28;20180;-70
2023/04/13 09:25:06;;;;;;;4.85;2.15;;;22.50;45.60;;;;;;5055381;28;20221;-70
2023/04/13 09:27:34;;;;;;;2.15;1.88;;;23.40;45.50;;;;;;5056266;28;20179;-70
2023/04/13 09:30:01;;;;;;;4.32;2.55;;;24.40;44.20;;;;;;5055612;28;20214;-71
2023/04/13 09:32:27;;;;;;;3.00;2.30;;;25.40;43.50;;;;;;5052881;28;20208;-71
2023/04/13 09:35:07;;;;;;;1.77;1.70;;;25.90;42.70;;;;;;5053929;28;20238;-71
2023/04/13 09:37:35;;;;;;;2.60;2.40;;;26.60;43.00;;;;;;5052214;28;20201;-69
2023/04/13 09:40:12;;;;;;;3.05;2.83;;;27.00;41.30;;;;;;5055011;28;20239;-69
2023/04/13 09:42:52;;;;;;;2.63;2.42;;;27.50;40.70;;;;;;5045301;28;20175;-71
2023/04/13 09:45:17;;;;;;;3.25;3.00;;;28.10;40.30;;;;;;5047577;28;20191;-71
2023/04/13 09:47:44;;;;;;;4.50;3.10;;;28.80;39.50;;;;;;5053051;28;20175;-71
2023/04/13 09:50:17;;;;;;;3.47;2.78;;;29.40;39.40;;;;;;5049205;28;20649;-70
2023/04/13 09:52:44;;;;;;;3.25;3.00;;;30.00;38.90;;;;;;5049627;28;20195;-71
2023/04/13 09:55:17;;;;;;;3.03;2.28;;;30.30;38.50;;;;;;5050850;28;20219;-71
2023/04/13 09:57:43;;;;;;;4.07;2.13;;;30.60;39.30;;;;;;5042041;28;20281;-70
2023/04/13 10:00:19;;;;;;;1.98;1.92;;;31.00;40.00;;;;;;5050194;28;20262;-72
2023/04/13 10:02:48;;;;;;;3.03;2.10;;;30.90;37.70;;;;;;5047169;28;20240;-71
2023/04/13 10:05:14;;;;;;;3.60;1.88;;;30.80;37.60;;;;;;5047196;28;20307;-71
2023/04/13 10:07:43;;;;;;;5.88;2.33;;;30.90;38.30;;;;;;5044115;28;20612;-71
2023/04/13 10:10:09;;;;;;;3.25;2.45;;;31.20;38.80;;;;;;5047572;28;20227;-72
2023/04/13 10:12:52;;;;;;;3.17;2.55;;;31.50;38.80;;;;;;5054626;28;20758;-71
2023/04/13 10:15:49;;;;;;;3.53;2.90;;;31.80;37.60;;;;;;5055584;28;20219;-71
2023/04/13 10:18:46;;;;;;;2.50;2.40;;;31.90;36.60;;;;;;5052247;28;20175;-71
2023/04/13 10:21:13;;;;;;;3.00;2.55;;;31.90;37.20;;;;;;5052310;28;20186;-71
2023/04/13 10:23:39;;;;;;;8.32;2.92;;;31.50;37.60;;;;;;5051647;28;20178;-71
2023/04/13 10:26:05;;;;;;;3.20;2.88;;;31.20;38.50;;;;;;5046243;28;20205;-72
2023/04/13 10:28:45;;;;;;;3.95;3.38;;;31.10;38.40;;;;;;5049273;28;20194;-71
2023/04/13 10:31:11;;;;;;;3.08;2.78;;;31.50;39.90;;;;;;5051769;28;20179;-71
2023/04/13 10:33:50;;;;;;;2.58;2.47;;;32.00;37.50;;;;;;5052005;28;20175;-71
2023/04/13 10:36:16;;;;;;;6.45;3.05;;;32.60;37.00;;;;;;5058456;28;20234;-71
2023/04/13 10:38:45;;;;;;;3.40;3.10;;;32.90;36.80;;;;;;5057123;28;20340;-71
2023/04/13 10:41:27;;;;;;;4.28;3.00;;;33.40;37.00;;;;;;5048146;28;20175;-71
2023/04/13 10:44:01;;;;;;;3.47;2.90;;;33.70;37.40;;;;;;5052867;28;20241;-72
2023/04/13 10:46:27;;;;;;;10.23;2.80;;;33.90;39.10;;;;;;5050006;28;20239;-71
2023/04/13 10:48:54;;;;;;;3.38;2.67;;;34.20;37.90;;;;;;5055355;28;20236;-71
2023/04/13 10:51:20;;;;;;;2.63;2.53;;;34.40;36.10;;;;;;5056200;28;20240;-72
2023/04/13 10:53:46;;;;;;;2.83;2.40;;;34.50;35.70;;;;;;5051347;28;20275;-71
2023/04/13 10:56:21;;;;;;;3.30;2.53;;;34.40;36.20;;;;;;5070056;28;20210;-71
2023/04/13 10:58:53;;;;;;;2.70;2.50;;;34.20;36.50;;;;;;5090582;28;20577;-71
2023/04/13 11:01:19;;;;;;;2.72;2.42;;;34.10;36.90;;;;;;5052346;28;20183;-71
2023/04/13 11:03:46;;;;;;;2.38;2.10;;;34.30;38.50;;;;;;5051962;28;20270;-72
2023/04/13 11:06:14;;;;;;;3.65;2.20;;;34.60;38.30;;;;;;5054357;28;20708;-71
2023/04/13 11:08:41;;;;;;;3.05;1.77;;;34.90;37.60;;;;;;5052647;28;20218;-70
2023/04/13 11:11:07;;;;;;;2.47;2.28;;;35.10;36.60;;;;;;5052314;28;20171;-71
2023/04/13 11:13:32;;;;;;;2.63;2.28;;;35.00;35.90;;;;;;5049805;28;20178;-71
2023/04/13 11:16:03;;;;;;;1.60;1.50;;;35.20;37.60;;;;;;5056969;28;20284;-71
2023/04/13 11:18:30;;;;;;;1.77;1.67;;;35.10;34.90;;;;;;5052904;28;20652;-72
2023/04/13 11:20:56;;;;;;;6.53;2.08;;;34.90;37.20;;;;;;5047868;28;20179;-69
2023/04/13 11:23:23;;;;;;;1.65;1.55;;;34.80;35.10;;;;;;5052798;28;20201;-69
2023/04/13 11:25:54;;;;;;;1.42;1.35;;;34.70;38.10;;;;;;5053393;28;20178;-69
2023/04/13 11:28:22;;;;;;;3.22;1.50;;;35.00;39.80;;;;;;5049435;28;20209;-69
2023/04/13 11:30:55;;;;;;;0.95;0.95;;;35.30;35.90;;;;;;5052742;28;20181;-69
2023/04/13 11:33:28;;;;;;;0.98;0.93;;;35.40;36.00;;;;;;5052430;28;20202;-69
2023/04/13 11:35:55;;;;;;;1.20;1.20;;;35.70;37.00;;;;;;5048151;28;20237;-69
2023/04/13 11:38:22;;;;;;;1.48;1.05;;;35.70;33.90;;;;;;5054228;28;20171;-69
2023/04/13 11:40:48;;;;;;;0.90;0.90;;;34.70;34.60;;;;;;5054299;28;20182;-69
2023/04/13 11:43:16;;;;;;;2.22;1.05;;;32.70;35.40;;;;;;5049844;28;20219;-68
2023/04/13 11:45:42;;;;;;;1.75;0.75;;;31.90;36.20;;;;;;5048266;28;20189;-69
2023/04/13 11:48:08;;;;;;;1.00;1.00;;;31.10;36.80;;;;;;5051532;28;20211;-69
2023/04/13 11:50:35;;;;;;;2.17;0.93;;;31.00;36.70;;;;;;5054264;28;20178;-69
2023/04/13 11:53:02;;;;;;;1.00;1.00;;;30.90;38.60;;;;;;5048012;28;20183;-69
2023/04/13 11:55:30;;;;;;;1.00;1.00;;;30.70;38.40;;;;;;5054553;28;20653;-69
2023/04/13 11:57:57;;;;;;;0.70;0.70;;;30.20;37.10;;;;;;5050190;28;20175;-69
2023/04/13 12:00:27;;;;;;;0.95;0.95;;;30.10;39.90;;;;;;5051204;28;20181;-69
2023/04/13 12:02:55;;;;;;;0.63;0.63;;;30.70;39.50;;;;;;5057723;28;20179;-69
2023/04/13 12:05:23;;;;;;;4.43;0.80;;;30.60;37.20;;;;;;5054694;28;20200;-69
2023/04/13 12:07:52;;;;;;;0.70;0.70;;;30.30;37.10;;;;;;5049890;28;20183;-68
2023/04/13 12:10:33;;;;;;;0.80;0.80;;;30.60;38.10;;;;;;5056761;28;20555;-69
2023/04/13 12:13:08;;;;;;;0.50;0.50;;;31.10;39.10;;;;;;5050620;28;20226;-69
2023/04/13 12:15:36;;;;;;;0.88;0.82;;;31.50;37.00;;;;;;5052515;28;20209;-69
2023/04/13 12:18:03;;;;;;;0.93;0.93;;;31.70;38.10;;;;;;5054202;28;20244;-68
2023/04/13 12:20:38;;;;;;;0.52;0.52;;;31.60;36.80;;;;;;5051453;28;20195;-69
2023/04/13 12:23:15;;;;;;;0.82;0.60;;;31.00;37.30;;;;;;5059976;28;20178;-69
2023/04/13 12:25:52;;;;;;;0.60;0.60;;;30.60;38.40;;;;;;5043802;28;20175;-70
2023/04/13 12:28:17;;;;;;;0.77;0.77;;;30.00;38.90;;;;;;5054579;28;20630;-70
2023/04/13 12:30:45;;;;;;;0.70;0.70;;;29.80;39.20;;;;;;5053035;28;20253;-70
2023/04/13 12:33:12;;;;;;;1.00;1.00;;;29.50;37.70;;;;;;5047583;28;20211;-71
2023/04/13 12:35:38;;;;;;;3.80;0.80;;;29.20;37.70;;;;;;5049883;28;20242;-71
2023/04/13 12:38:04;;;;;;;0.75;0.75;;;29.10;38.30;;;;;;5053335;28;20633;-70
2023/04/13 12:40:29;;;;;;;3.42;0.68;;;28.70;38.90;;;;;;5047616;28;20187;-70
2023/04/13 12:42:55;;;;;;;0.70;0.70;;;29.10;39.00;;;;;;5055465;28;20191;-70
2023/04/13 12:45:21;;;;;;;0.70;0.70;;;29.50;40.30;;;;;;5052178;28;20195;-70
2023/04/13 12:47:46;;;;;;;0.65;0.63;;;30.00;39.50;;;;;;5051279;28;20207;-70
2023/04/13 12:50:12;;;;;;;0.70;0.70;;;30.10;37.90;;;;;;5051797;28;20218;-69
2023/04/13 12:52:41;;;;;;;0.68;0.68;;;30.30;37.10;;;;;;5048008;28;20184;-69
2023/04/13 12:55:07;;;;;;;1.05;0.40;;;29.90;37.90;;;;;;5047593;28;20210;-69
2023/04/13 12:57:33;;;;;;;0.55;0.55;;;30.10;38.80;;;;;;5052386;28;20191;-70